Time;durP1;ratioP1;P1;durP2;ratioP2;P2;SDS_P1;SDS_P2;PMS_P1;PMS_P2;Temp;Humidity;BMP_temperature;BMP_pressure;BME280_temperature;BME280_humidity;BME280_pressure;Samples;Min_cycle;Max_cycle;Signal;HPM_P1;HPM_P2
2023/12/04 00:00:21;;;;;;;;;;;;;;;;;;5031008;28;19923;-79
2023/12/04 00:02:46;;;;;;;;;;;;;;;;;;5031241;28;20818;-81
2023/12/04 00:05:12;;;;;;;;;;;;;;;;;;5025368;28;19917;-80
2023/12/04 00:07:38;;;;;;;;;;;;;;;;;;5027281;28;19917;-80
2023/12/04 00:10:04;;;;;;;;;;;;;;;;;;5022821;28;19923;-80
2023/12/04 00:12:30;;;;;;;;;;;;;;;;;;5025866;28;19920;-81
2023/12/04 00:14:56;;;;;;;;;;;;;;;;;;5026990;28;19923;-80
2023/12/04 00:17:22;;;;;;;;;;;;;;;;;;5029658;28;19916;-80
2023/12/04 00:19:48;;;;;;;;;;;;;;;;;;5025244;28;19927;-80
2023/12/04 00:22:14;;;;;;;;;;;;;;;;;;5030676;28;20002;-80
2023/12/04 00:24:40;;;;;;;;;;;;;;;;;;5025682;28;19921;-81
2023/12/04 00:27:06;;;;;;;;;;;;;;;;;;5025504;28;19921;-81
2023/12/04 00:29:32;;;;;;;;;;;;;;;;;;5030712;28;20259;-82
2023/12/04 00:31:58;;;;;;;;;;;;;;;;;;5031412;28;20447;-81
2023/12/04 00:34:24;;;;;;;;;;;;;;;;;;5026582;28;20036;-78
2023/12/04 00:36:50;;;;;;;;;;;;;;;;;;5026499;28;21304;-80
2023/12/04 00:39:16;;;;;;;;;;;;;;;;;;5017855;28;19951;-80
2023/12/04 00:41:42;;;;;;;;;;;;;;;;;;5032134;28;19994;-80
2023/12/04 00:44:08;;;;;;;;;;;;;;;;;;5036221;28;20043;-81
2023/12/04 00:46:34;;;;;;;;;;;;;;;;;;5034952;28;19913;-81
2023/12/04 00:49:00;;;;;;;;;;;;;;;;;;5030635;28;20440;-80
2023/12/04 00:51:26;;;;;;;;;;;;;;;;;;5039387;28;19916;-80
2023/12/04 00:53:52;;;;;;;;;;;;;;;;;;5032034;28;20031;-80
2023/12/04 00:56:20;;;;;;;;;;;;;;;;;;5036904;28;19913;-79
2023/12/04 00:58:46;;;;;;;;;;;;;;;;;;5035802;28;19927;-80
2023/12/04 01:01:12;;;;;;;;;;;;;;;;;;5035834;28;19924;-79
2023/12/04 01:03:38;;;;;;;;;;;;;;;;;;5051035;28;19932;-79
2023/12/04 01:06:04;;;;;;;;;;;;;;;;;;5031568;28;19916;-79
2023/12/04 01:08:30;;;;;;;;;;;;;;;;;;5047619;28;19920;-80
2023/12/04 01:10:56;;;;;;;;;;;;;;;;;;5035186;28;19931;-80
2023/12/04 01:13:22;;;;;;;;;;;;;;;;;;5023152;28;20007;-81
2023/12/04 01:15:48;;;;;;;;;;;;;;;;;;5002302;28;19959;-81
2023/12/04 01:18:14;;;;;;;;;;;;;;;;;;5016659;28;20564;-81
2023/12/04 01:20:40;;;;;;;;;;;;;;;;;;5002817;28;19920;-81
2023/12/04 01:23:06;;;;;;;;;;;;;;;;;;5004455;28;20382;-81
2023/12/04 01:25:32;;;;;;;;;;;;;;;;;;4999076;28;20581;-81
2023/12/04 01:27:58;;;;;;;;;;;;;;;;;;4996199;28;20753;-81
2023/12/04 01:30:24;;;;;;;;;;;;;;;;;;4994707;28;19923;-82
2023/12/04 01:32:50;;;;;;;;;;;;;;;;;;5001962;28;19924;-80
2023/12/04 01:35:16;;;;;;;;;;;;;;;;;;5004553;28;19924;-81
2023/12/04 01:37:42;;;;;;;;;;;;;;;;;;5002134;28;20487;-82
2023/12/04 01:40:08;;;;;;;;;;;;;;;;;;5021047;28;19932;-81
2023/12/04 01:42:34;;;;;;;;;;;;;;;;;;5005659;28;19959;-82
2023/12/04 01:45:00;;;;;;;;;;;;;;;;;;4998517;28;19928;-81
2023/12/04 01:47:26;;;;;;;;;;;;;;;;;;5017385;28;19920;-82
2023/12/04 01:49:52;;;;;;;;;;;;;;;;;;4997594;28;19964;-81
2023/12/04 01:52:18;;;;;;;;;;;;;;;;;;5028579;28;20727;-81
2023/12/04 01:54:44;;;;;;;;;;;;;;;;;;5032945;28;20429;-81
2023/12/04 01:57:10;;;;;;;;;;;;;;;;;;5034447;28;20639;-81
2023/12/04 01:59:36;;;;;;;;;;;;;;;;;;5032869;28;19917;-82
2023/12/04 02:02:02;;;;;;;;;;;;;;;;;;5030595;28;20024;-81
2023/12/04 02:04:28;;;;;;;;;;;;;;;;;;5033534;28;20007;-82
2023/12/04 02:06:54;;;;;;;;;;;;;;;;;;5032793;28;20555;-80
2023/12/04 02:09:20;;;;;;;;;;;;;;;;;;5042242;28;19912;-80
2023/12/04 02:11:46;;;;;;;;;;;;;;;;;;5033729;28;19917;-80
2023/12/04 02:14:12;;;;;;;;;;;;;;;;;;5034309;28;19923;-82
2023/12/04 02:16:38;;;;;;;;;;;;;;;;;;5032674;28;19917;-82
2023/12/04 02:19:03;;;;;;;;;;;;;;;;;;5029346;28;19958;-81
2023/12/04 02:21:29;;;;;;;;;;;;;;;;;;5031467;28;19979;-82
2023/12/04 02:23:55;;;;;;;;;;;;;;;;;;5032565;28;19924;-81
2023/12/04 02:26:21;;;;;;;;;;;;;;;;;;5033933;28;20007;-79
2023/12/04 02:28:47;;;;;;;;;;;;;;;;;;5032346;28;20384;-80
2023/12/04 02:31:13;;;;;;;;;;;;;;;;;;5036247;28;20464;-79
2023/12/04 02:33:39;;;;;;;;;;;;;;;;;;5037152;28;19978;-80
2023/12/04 02:36:05;;;;;;;;;;;;;;;;;;5030900;28;20394;-80
2023/12/04 02:38:31;;;;;;;;;;;;;;;;;;5034286;28;20303;-82
2023/12/04 02:40:57;;;;;;;;;;;;;;;;;;5027795;28;19921;-81
2023/12/04 02:43:23;;;;;;;;;;;;;;;;;;5037011;28;19927;-80
2023/12/04 02:45:49;;;;;;;;;;;;;;;;;;5027842;28;19924;-79
2023/12/04 02:48:15;;;;;;;;;;;;;;;;;;5029323;28;19917;-80
2023/12/04 02:50:41;;;;;;;;;;;;;;;;;;5027573;28;20001;-81
2023/12/04 02:53:07;;;;;;;;;;;;;;;;;;5030281;28;19928;-81
2023/12/04 02:55:33;;;;;;;;;;;;;;;;;;5030400;28;19920;-81
2023/12/04 02:57:59;;;;;;;;;;;;;;;;;;5028458;28;19928;-81
2023/12/04 03:00:24;;;;;;;;;;;;;;;;;;5032128;28;19916;-80
2023/12/04 03:02:50;;;;;;;;;;;;;;;;;;5026573;28;20552;-80
2023/12/04 03:05:16;;;;;;;;;;;;;;;;;;5031899;28;20293;-80
2023/12/04 03:07:42;;;;;;;;;;;;;;;;;;5037287;28;20016;-81
2023/12/04 03:10:08;;;;;;;;;;;;;;;;;;5039460;28;19921;-80
2023/12/04 03:12:34;;;;;;;;;;;;;;;;;;5038705;28;19917;-80
2023/12/04 03:15:00;;;;;;;;;;;;;;;;;;5042302;28;19921;-80
2023/12/04 03:17:26;;;;;;;;;;;;;;;;;;5044319;28;20315;-81
2023/12/04 03:19:52;;;;;;;;;;;;;;;;;;5043474;28;19917;-80
2023/12/04 03:22:18;;;;;;;;;;;;;;;;;;5040191;28;19924;-81
2023/12/04 03:24:44;;;;;;;;;;;;;;;;;;5042094;28;19917;-81
2023/12/04 03:27:10;;;;;;;;;;;;;;;;;;5033013;28;19913;-81
2023/12/04 03:29:36;;;;;;;;;;;;;;;;;;5034372;28;19923;-80
2023/12/04 03:32:02;;;;;;;;;;;;;;;;;;5032474;28;20333;-79
2023/12/04 03:34:28;;;;;;;;;;;;;;;;;;5036822;28;20672;-79
2023/12/04 03:36:54;;;;;;;;;;;;;;;;;;5037266;28;19960;-80
2023/12/04 03:39:19;;;;;;;;;;;;;;;;;;5035714;28;19917;-78
2023/12/04 03:41:45;;;;;;;;;;;;;;;;;;5035646;28;19921;-79
2023/12/04 03:44:11;;;;;;;;;;;;;;;;;;5031859;28;19927;-80
2023/12/04 03:46:37;;;;;;;;;;;;;;;;;;5031471;28;20403;-80
2023/12/04 03:49:03;;;;;;;;;;;;;;;;;;5033190;28;20323;-80
2023/12/04 03:51:29;;;;;;;;;;;;;;;;;;5031150;28;19927;-80
2023/12/04 03:53:55;;;;;;;;;;;;;;;;;;5035083;28;19921;-82
2023/12/04 03:56:21;;;;;;;;;;;;;;;;;;5035826;28;19925;-81
2023/12/04 03:58:47;;;;;;;;;;;;;;;;;;5033430;28;19920;-79
2023/12/04 04:01:13;;;;;;;;;;;;;;;;;;5035089;28;19924;-80
2023/12/04 04:03:39;;;;;;;;;;;;;;;;;;5033305;28;20031;-80
2023/12/04 04:06:05;;;;;;;;;;;;;;;;;;5032248;28;20544;-79
2023/12/04 04:08:31;;;;;;;;;;;;;;;;;;5034132;28;19913;-80
2023/12/04 04:10:57;;;;;;;;;;;;;;;;;;5034369;28;19917;-81
2023/12/04 04:13:23;;;;;;;;;;;;;;;;;;5034152;28;19925;-81
2023/12/04 04:15:49;;;;;;;;;;;;;;;;;;5035938;28;19994;-79
2023/12/04 04:18:15;;;;;;;;;;;;;;;;;;5034212;28;19916;-78
2023/12/04 04:20:41;;;;;;;;;;;;;;;;;;5034832;28;19916;-80
2023/12/04 04:23:06;;;;;;;;;;;;;;;;;;5026477;28;19972;-80
2023/12/04 04:25:32;;;;;;;;;;;;;;;;;;5034665;28;20056;-79
2023/12/04 04:27:58;;;;;;;;;;;;;;;;;;5032724;28;19917;-78
2023/12/04 04:30:24;;;;;;;;;;;;;;;;;;5034198;28;19916;-79
2023/12/04 04:32:50;;;;;;;;;;;;;;;;;;5031366;28;20831;-80
2023/12/04 04:35:16;;;;;;;;;;;;;;;;;;5037890;28;20015;-81
2023/12/04 04:37:42;;;;;;;;;;;;;;;;;;5049651;28;19917;-82
2023/12/04 04:40:08;;;;;;;;;;;;;;;;;;5031439;28;21245;-80
2023/12/04 04:42:34;;;;;;;;;;;;;;;;;;5036367;28;20383;-82
2023/12/04 04:45:00;;;;;;;;;;;;;;;;;;5026828;28;20577;-83
2023/12/04 04:47:26;;;;;;;;;;;;;;;;;;5033609;28;20456;-80
2023/12/04 04:49:52;;;;;;;;;;;;;;;;;;5028518;28;19924;-80
2023/12/04 04:52:18;;;;;;;;;;;;;;;;;;5035737;28;19967;-81
2023/12/04 04:54:44;;;;;;;;;;;;;;;;;;5047765;28;19998;-80
2023/12/04 04:57:10;;;;;;;;;;;;;;;;;;5033920;28;19917;-81
2023/12/04 04:59:35;;;;;;;;;;;;;;;;;;5040700;28;19921;-81
2023/12/04 05:02:01;;;;;;;;;;;;;;;;;;5033238;28;19927;-81
2023/12/04 05:04:27;;;;;;;;;;;;;;;;;;5039281;28;19923;-80
2023/12/04 05:06:53;;;;;;;;;;;;;;;;;;5031556;28;19929;-81
2023/12/04 05:09:19;;;;;;;;;;;;;;;;;;5029779;28;19921;-79
2023/12/04 05:11:45;;;;;;;;;;;;;;;;;;5038121;28;19924;-81
2023/12/04 05:14:11;;;;;;;;;;;;;;;;;;5033731;28;19916;-80
2023/12/04 05:16:37;;;;;;;;;;;;;;;;;;5033898;28;19920;-79
2023/12/04 05:19:03;;;;;;;;;;;;;;;;;;5033888;28;20382;-80
2023/12/04 05:21:29;;;;;;;;;;;;;;;;;;5037636;28;20830;-79
2023/12/04 05:23:55;;;;;;;;;;;;;;;;;;5032436;28;19927;-80
2023/12/04 05:26:21;;;;;;;;;;;;;;;;;;5035375;28;19956;-80
2023/12/04 05:28:47;;;;;;;;;;;;;;;;;;5033202;28;19966;-80
2023/12/04 05:31:13;;;;;;;;;;;;;;;;;;5035192;28;19974;-80
2023/12/04 05:33:39;;;;;;;;;;;;;;;;;;5038165;28;20295;-80
2023/12/04 05:36:06;;;;;;;;;;;;;;;;;;5034802;28;19924;-81
2023/12/04 05:38:32;;;;;;;;;;;;;;;;;;5033725;28;19924;-80
2023/12/04 05:40:58;;;;;;;;;;;;;;;;;;5037252;28;19916;-80
2023/12/04 05:43:24;;;;;;;;;;;;;;;;;;5030592;28;19917;-81
2023/12/04 05:45:50;;;;;;;;;;;;;;;;;;5031571;28;20361;-79
2023/12/04 05:48:16;;;;;;;;;;;;;;;;;;5035510;28;19917;-79
2023/12/04 05:50:42;;;;;;;;;;;;;;;;;;5033634;28;19924;-79
2023/12/04 05:53:09;;;;;;;;;;;;;;;;;;5033637;28;19925;-80
2023/12/04 05:55:34;;;;;;;;;;;;;;;;;;5036910;28;19920;-82
2023/12/04 05:58:00;;;;;;;;;;;;;;;;;;5029430;28;19923;-79
2023/12/04 06:00:26;;;;;;;;;;;;;;;;;;5035135;28;19974;-80
2023/12/04 06:02:52;;;;;;;;;;;;;;;;;;5030093;28;19920;-79
2023/12/04 06:05:18;;;;;;;;;;;;;;;;;;5032844;28;20802;-81
2023/12/04 06:07:44;;;;;;;;;;;;;;;;;;5035944;28;19917;-81
2023/12/04 06:10:10;;;;;;;;;;;;;;;;;;5037640;28;19917;-81
2023/12/04 06:12:36;;;;;;;;;;;;;;;;;;5040464;28;19920;-81
2023/12/04 06:15:02;;;;;;;;;;;;;;;;;;5041803;28;19912;-80
2023/12/04 06:17:28;;;;;;;;;;;;;;;;;;5036714;28;19917;-81
2023/12/04 06:19:54;;;;;;;;;;;;;;;;;;5042702;28;19921;-79
2023/12/04 06:22:21;;;;;;;;;;;;;;;;;;5031719;28;19920;-80
2023/12/04 06:24:47;;;;;;;;;;;;;;;;;;5038667;28;19928;-80
2023/12/04 06:27:13;;;;;;;;;;;;;;;;;;5036086;28;19913;-80
2023/12/04 06:29:39;;;;;;;;;;;;;;;;;;5038698;28;19963;-80
2023/12/04 06:32:05;;;;;;;;;;;;;;;;;;5035233;28;19991;-80
2023/12/04 06:34:31;;;;;;;;;;;;;;;;;;5039605;28;19917;-79
2023/12/04 06:36:57;;;;;;;;;;;;;;;;;;5037472;28;19921;-82
2023/12/04 06:39:23;;;;;;;;;;;;;;;;;;5042348;28;19944;-80
2023/12/04 06:41:49;;;;;;;;;;;;;;;;;;5039310;28;19920;-82
2023/12/04 06:44:14;;;;;;;;;;;;;;;;;;5042051;28;19917;-80
2023/12/04 06:46:40;;;;;;;;;;;;;;;;;;5040415;28;20505;-80
2023/12/04 06:49:06;;;;;;;;;;;;;;;;;;5035077;28;20462;-80
2023/12/04 06:51:32;;;;;;;;;;;;;;;;;;5037809;28;19916;-80
2023/12/04 06:53:58;;;;;;;;;;;;;;;;;;5040602;28;19956;-81
2023/12/04 06:56:24;;;;;;;;;;;;;;;;;;5029003;28;20019;-79
2023/12/04 06:58:50;;;;;;;;;;;;;;;;;;5035378;28;19955;-81
2023/12/04 07:01:16;;;;;;;;;;;;;;;;;;5042013;28;19925;-80
2023/12/04 07:03:42;;;;;;;;;;;;;;;;;;5038285;28;19916;-79
2023/12/04 07:06:08;;;;;;;;;;;;;;;;;;5037281;28;19974;-79
2023/12/04 07:08:34;;;;;;;;;;;;;;;;;;5042117;28;19912;-83
2023/12/04 07:11:00;;;;;;;;;;;;;;;;;;5043364;28;19921;-81
2023/12/04 07:13:26;;;;;;;;;;;;;;;;;;5041538;28;19919;-79
2023/12/04 07:15:52;;;;;;;;;;;;;;;;;;5038080;28;19917;-81
2023/12/04 07:18:18;;;;;;;;;;;;;;;;;;5046165;28;19913;-81
2023/12/04 07:20:44;;;;;;;;;;;;;;;;;;5046256;28;19917;-81
2023/12/04 07:23:10;;;;;;;;;;;;;;;;;;5060640;28;19985;-81
2023/12/04 07:25:36;;;;;;;;;;;;;;;;;;5068458;28;19922;-80
2023/12/04 07:28:02;;;;;;;;;;;;;;;;;;5060567;28;20354;-79
2023/12/04 07:30:28;;;;;;;;;;;;;;;;;;5066386;28;20966;-81
2023/12/04 07:32:54;;;;;;;;;;;;;;;;;;5048722;28;19924;-80
2023/12/04 07:35:21;;;;;;;;;;;;;;;;;;5052222;28;20317;-80
2023/12/04 07:37:47;;;;;;;;;;;;;;;;;;5044450;28;19916;-80
2023/12/04 07:40:12;;;;;;;;;;;;;;;;;;5048017;28;19927;-82
2023/12/04 07:42:38;;;;;;;;;;;;;;;;;;5050187;28;19917;-79
2023/12/04 07:45:04;;;;;;;;;;;;;;;;;;5047945;28;20244;-81
2023/12/04 07:47:30;;;;;;;;;;;;;;;;;;5048404;28;20272;-80
2023/12/04 07:49:56;;;;;;;;;;;;;;;;;;5046086;28;20400;-81
2023/12/04 07:52:22;;;;;;;;;;;;;;;;;;5045312;28;19923;-82
2023/12/04 07:54:48;;;;;;;;;;;;;;;;;;5045153;28;19920;-81
2023/12/04 07:57:14;;;;;;;;;;;;;;;;;;5057759;28;19970;-81
2023/12/04 07:59:40;;;;;;;;;;;;;;;;;;5062645;28;19913;-79
2023/12/04 08:02:06;;;;;;;;;;;;;;;;;;5063676;28;19916;-81
2023/12/04 08:04:32;;;;;;;;;;;;;;;;;;5063055;28;19927;-80
2023/12/04 08:06:58;;;;;;;;;;;;;;;;;;5068006;28;19913;-79
2023/12/04 08:09:24;;;;;;;;;;;;;;;;;;5041910;28;19925;-81
2023/12/04 08:11:50;;;;;;;;;;;;;;;;;;5039109;28;19963;-80
2023/12/04 08:14:16;;;;;;;;;;;;;;;;;;5039481;28;20351;-80
2023/12/04 08:16:42;;;;;;;;;;;;;;;;;;5039855;28;20523;-81
2023/12/04 08:19:08;;;;;;;;;;;;;;;;;;5040506;28;19920;-80
2023/12/04 08:21:34;;;;;;;;;;;;;;;;;;5039166;28;19998;-80
2023/12/04 08:24:00;;;;;;;;;;;;;;;;;;5044234;28;19989;-80
2023/12/04 08:26:26;;;;;;;;;;;;;;;;;;5041500;28;20037;-81
2023/12/04 08:28:51;;;;;;;;;;;;;;;;;;5041245;28;19929;-80
2023/12/04 08:31:17;;;;;;;;;;;;;;;;;;5040850;28;19921;-81
2023/12/04 08:33:44;;;;;;;;;;;;;;;;;;5048922;28;19936;-79
2023/12/04 08:36:10;;;;;;;;;;;;;;;;;;5060052;28;20026;-79
2023/12/04 08:38:36;;;;;;;;;;;;;;;;;;5048217;28;19923;-79
2023/12/04 08:41:02;;;;;;;;;;;;;;;;;;5047332;28;19912;-80
2023/12/04 08:43:28;;;;;;;;;;;;;;;;;;5044952;28;20012;-80
2023/12/04 08:45:54;;;;;;;;;;;;;;;;;;5042679;28;19923;-81
2023/12/04 08:48:20;;;;;;;;;;;;;;;;;;5052503;28;19920;-80
2023/12/04 08:50:46;;;;;;;;;;;;;;;;;;5047762;28;19967;-80
2023/12/04 08:53:12;;;;;;;;;;;;;;;;;;5040577;28;20357;-81
2023/12/04 08:55:38;;;;;;;;;;;;;;;;;;5032412;28;19991;-81
2023/12/04 08:58:04;;;;;;;;;;;;;;;;;;5034451;28;19924;-81
2023/12/04 09:00:30;;;;;;;;;;;;;;;;;;5024311;28;19975;-81
2023/12/04 09:02:56;;;;;;;;;;;;;;;;;;5034979;28;19926;-81
2023/12/04 09:05:22;;;;;;;;;;;;;;;;;;5035577;28;20531;-80
2023/12/04 09:07:48;;;;;;;;;;;;;;;;;;5036633;28;20070;-80
2023/12/04 09:10:14;;;;;;;;;;;;;;;;;;5035560;28;19916;-80
2023/12/04 09:12:40;;;;;;;;;;;;;;;;;;5040290;28;20467;-80
2023/12/04 09:15:06;;;;;;;;;;;;;;;;;;5044043;28;19917;-82
2023/12/04 09:17:32;;;;;;;;;;;;;;;;;;5043335;28;20028;-81
2023/12/04 09:19:58;;;;;;;;;;;;;;;;;;5039957;28;19923;-81
2023/12/04 09:22:24;;;;;;;;;;;;;;;;;;5039869;28;20621;-80
2023/12/04 09:24:52;;;;;;;;;;;;;;;;;;5036840;28;20416;-81
2023/12/04 09:27:18;;;;;;;;;;;;;;;;;;5021267;28;19916;-81
2023/12/04 09:29:44;;;;;;;;;;;;;;;;;;5020071;28;19913;-82
2023/12/04 09:32:10;;;;;;;;;;;;;;;;;;5020442;28;19916;-81
2023/12/04 09:34:36;;;;;;;;;;;;;;;;;;5021116;28;19909;-82
2023/12/04 09:37:02;;;;;;;;;;;;;;;;;;4997071;28;19928;-82
2023/12/04 09:39:27;;;;;;;;;;;;;;;;;;4996214;28;19923;-81
2023/12/04 09:41:53;;;;;;;;;;;;;;;;;;4994206;28;19998;-81
2023/12/04 09:44:19;;;;;;;;;;;;;;;;;;4992473;28;20579;-80
2023/12/04 09:46:45;;;;;;;;;;;;;;;;;;4997643;28;19921;-81
2023/12/04 09:49:11;;;;;;;;;;;;;;;;;;4991877;28;20027;-81
2023/12/04 09:51:37;;;;;;;;;;;;;;;;;;4998204;28;20698;-81
2023/12/04 09:54:04;;;;;;;;;;;;;;;;;;5016551;28;19921;-81
2023/12/04 09:56:30;;;;;;;;;;;;;;;;;;4995768;28;20467;-82
2023/12/04 09:58:56;;;;;;;;;;;;;;;;;;5017359;28;20355;-80
2023/12/04 10:01:22;;;;;;;;;;;;;;;;;;5014707;28;19982;-81
2023/12/04 10:03:48;;;;;;;;;;;;;;;;;;5005708;28;19916;-80
2023/12/04 10:06:14;;;;;;;;;;;;;;;;;;5000221;28;20422;-80
2023/12/04 10:08:40;;;;;;;;;;;;;;;;;;4999806;28;19966;-80
2023/12/04 10:11:06;;;;;;;;;;;;;;;;;;4995197;28;19916;-81
2023/12/04 10:13:32;;;;;;;;;;;;;;;;;;5014632;28;19912;-80
2023/12/04 10:15:58;;;;;;;;;;;;;;;;;;5014128;28;19921;-80
2023/12/04 10:18:24;;;;;;;;;;;;;;;;;;5017896;28;20326;-80
2023/12/04 10:20:50;;;;;;;;;;;;;;;;;;5031283;28;19920;-82
2023/12/04 10:23:16;;;;;;;;;;;;;;;;;;5034304;28;19950;-81
2023/12/04 10:25:41;;;;;;;;;;;;;;;;;;5032449;28;19948;-81
2023/12/04 10:28:08;;;;;;;;;;;;;;;;;;5025975;28;20642;-82
2023/12/04 10:30:33;;;;;;;;;;;;;;;;;;5029414;28;19917;-82
2023/12/04 10:33:03;;;;;;;;;;;;;;;;;;5022025;28;19924;-82
2023/12/04 10:35:29;;;;;;;;;;;;;;;;;;5022291;28;20615;-80
2023/12/04 10:37:55;;;;;;;;;;;;;;;;;;5022850;28;19952;-79
2023/12/04 10:40:21;;;;;;;;;;;;;;;;;;5025955;28;20324;-80
2023/12/04 10:42:47;;;;;;;;;;;;;;;;;;5034540;28;20355;-80
2023/12/04 10:45:13;;;;;;;;;;;;;;;;;;5025853;28;20595;-81
2023/12/04 10:47:39;;;;;;;;;;;;;;;;;;5028103;28;19920;-82
2023/12/04 10:50:07;;;;;;;;;;;;;;;;;;5034170;28;20433;-81
2023/12/04 10:52:33;;;;;;;;;;;;;;;;;;5030391;28;20699;-81
2023/12/04 10:54:59;;;;;;;;;;;;;;;;;;5024792;28;19996;-82
2023/12/04 10:57:25;;;;;;;;;;;;;;;;;;5029426;28;20031;-81
2023/12/04 10:59:51;;;;;;;;;;;;;;;;;;5036117;28;19921;-81
2023/12/04 11:02:17;;;;;;;;;;;;;;;;;;5029590;28;19927;-81
2023/12/04 11:04:43;;;;;;;;;;;;;;;;;;5026390;28;19916;-82
2023/12/04 11:07:09;;;;;;;;;;;;;;;;;;5037537;28;19945;-81
2023/12/04 11:09:35;;;;;;;;;;;;;;;;;;5029854;28;19990;-81
2023/12/04 11:12:01;;;;;;;;;;;;;;;;;;5026093;28;20638;-82
2023/12/04 11:14:27;;;;;;;;;;;;;;;;;;5033757;28;20020;-81
2023/12/04 11:16:57;;;;;;;;;;;;;;;;;;5025430;28;20469;-83
2023/12/04 11:19:23;;;;;;;;;;;;;;;;;;5030168;28;20009;-82
2023/12/04 11:21:48;;;;;;;;;;;;;;;;;;5032806;28;19920;-81
2023/12/04 11:24:14;;;;;;;;;;;;;;;;;;5031604;28;19967;-82
2023/12/04 11:26:40;;;;;;;;;;;;;;;;;;5033735;28;20420;-84
2023/12/04 11:29:06;;;;;;;;;;;;;;;;;;5025328;28;19960;-82
2023/12/04 11:31:32;;;;;;;;;;;;;;;;;;5032795;28;19917;-82
2023/12/04 11:33:58;;;;;;;;;;;;;;;;;;5035002;28;20564;-83
2023/12/04 11:36:24;;;;;;;;;;;;;;;;;;5031545;28;20506;-85
2023/12/04 11:38:50;;;;;;;;;;;;;;;;;;5031442;28;19913;-81
2023/12/04 11:41:17;;;;;;;;;;;;;;;;;;5029477;28;19990;-80
2023/12/04 11:43:46;;;;;;;;;;;;;;;;;;5026524;28;19991;-81
2023/12/04 11:46:12;;;;;;;;;;;;;;;;;;5024169;28;19916;-80
2023/12/04 11:48:38;;;;;;;;;;;;;;;;;;5035039;28;20318;-78
2023/12/04 11:51:04;;;;;;;;;;;;;;;;;;5032447;28;19923;-80
2023/12/04 11:53:30;;;;;;;;;;;;;;;;;;5028585;28;20703;-79
2023/12/04 11:55:59;;;;;;;;;;;;;;;;;;5021703;28;20397;-82
2023/12/04 11:58:25;;;;;;;;;;;;;;;;;;5030222;28;20453;-80
2023/12/04 12:00:52;;;;;;;;;;;;;;;;;;5027294;28;19928;-80
2023/12/04 12:03:18;;;;;;;;;;;;;;;;;;5035676;28;19974;-82
2023/12/04 12:05:44;;;;;;;;;;;;;;;;;;5030514;28;20598;-79
2023/12/04 12:08:11;;;;;;;;;;;;;;;;;;5031573;28;19990;-82
2023/12/04 12:10:36;;;;;;;;;;;;;;;;;;5036356;28;19920;-80
2023/12/04 12:13:02;;;;;;;;;;;;;;;;;;5025758;28;20429;-81
2023/12/04 12:15:29;;;;;;;;;;;;;;;;;;5033398;28;19950;-81
2023/12/04 12:17:55;;;;;;;;;;;;;;;;;;5031148;28;20231;-80
2023/12/04 12:20:21;;;;;;;;;;;;;;;;;;5034108;28;19917;-81
2023/12/04 12:22:47;;;;;;;;;;;;;;;;;;5040118;28;19954;-81
2023/12/04 12:25:13;;;;;;;;;;;;;;;;;;5031418;28;20475;-82
2023/12/04 12:27:39;;;;;;;;;;;;;;;;;;5037171;28;19921;-81
2023/12/04 12:30:05;;;;;;;;;;;;;;;;;;5027613;28;19920;-80
2023/12/04 12:32:32;;;;;;;;;;;;;;;;;;5032572;28;19916;-82
2023/12/04 12:34:58;;;;;;;;;;;;;;;;;;5029901;28;19924;-81
2023/12/04 12:37:23;;;;;;;;;;;;;;;;;;5031978;28;20382;-81
2023/12/04 12:39:50;;;;;;;;;;;;;;;;;;5028156;28;19921;-80
2023/12/04 12:42:16;;;;;;;;;;;;;;;;;;5028243;28;19975;-81
2023/12/04 12:44:43;;;;;;;;;;;;;;;;;;5025916;28;20431;-78
2023/12/04 12:47:09;;;;;;;;;;;;;;;;;;5029507;28;20830;-79
2023/12/04 12:49:38;;;;;;;;;;;;;;;;;;5026739;28;20256;-79
2023/12/04 12:52:04;;;;;;;;;;;;;;;;;;5033632;28;19916;-82
2023/12/04 12:54:32;;;;;;;;;;;;;;;;;;5030175;28;20559;-84
2023/12/04 12:56:58;;;;;;;;;;;;;;;;;;5031520;28;20002;-80
2023/12/04 12:59:24;;;;;;;;;;;;;;;;;;5032523;28;20645;-81
2023/12/04 13:01:50;;;;;;;;;;;;;;;;;;5026936;28;19927;-80
2023/12/04 13:04:16;;;;;;;;;;;;;;;;;;5030291;28;20066;-81
2023/12/04 13:06:42;;;;;;;;;;;;;;;;;;5035294;28;19917;-81
2023/12/04 13:09:08;;;;;;;;;;;;;;;;;;5031768;28;19921;-81
2023/12/04 13:11:34;;;;;;;;;;;;;;;;;;5036242;28;19923;-81
2023/12/04 13:14:00;;;;;;;;;;;;;;;;;;5044697;28;19981;-80
2023/12/04 13:16:26;;;;;;;;;;;;;;;;;;5059068;28;19917;-81
2023/12/04 13:18:52;;;;;;;;;;;;;;;;;;5064279;28;20237;-80
2023/12/04 13:21:17;;;;;;;;;;;;;;;;;;5058666;28;19905;-81
2023/12/04 13:23:43;;;;;;;;;;;;;;;;;;5044883;28;19943;-80
2023/12/04 13:26:10;;;;;;;;;;;;;;;;;;5040314;28;19925;-81
2023/12/04 13:28:36;;;;;;;;;;;;;;;;;;5045540;28;19917;-81
2023/12/04 13:31:02;;;;;;;;;;;;;;;;;;5040206;28;19927;-80
2023/12/04 13:33:28;;;;;;;;;;;;;;;;;;5037267;28;19917;-82
2023/12/04 13:35:54;;;;;;;;;;;;;;;;;;5035613;28;19917;-81
2023/12/04 13:38:20;;;;;;;;;;;;;;;;;;5053633;28;19920;-82
2023/12/04 13:40:59;;;;;;;;;;;;;;;;;;5039917;28;20685;-81
2023/12/04 13:46:10;;;;;;;;;;;;;;;;;;5032755;28;19937;-81
2023/12/04 13:48:39;;;;;;;;;;;;;;;;;;5034992;28;19921;-81
2023/12/04 13:51:05;;;;;;;;;;;;;;;;;;5035550;28;20215;-81
2023/12/04 13:53:31;;;;;;;;;;;;;;;;;;5038524;28;20425;-81
2023/12/04 13:58:42;;;;;;;;;;;;;;;;;;5033471;28;19916;-81
2023/12/04 14:01:14;;;;;;;;;;;;;;;;;;5032300;28;20556;-82
2023/12/04 14:03:40;;;;;;;;;;;;;;;;;;5031365;28;19917;-82
2023/12/04 14:06:06;;;;;;;;;;;;;;;;;;5025975;28;19916;-82
2023/12/04 14:08:32;;;;;;;;;;;;;;;;;;5033833;28;19917;-80
2023/12/04 14:10:58;;;;;;;;;;;;;;;;;;5029835;28;19923;-81
2023/12/04 14:13:24;;;;;;;;;;;;;;;;;;5034059;28;20017;-80
2023/12/04 14:15:49;;;;;;;;;;;;;;;;;;5031196;28;19932;-80
2023/12/04 14:18:15;;;;;;;;;;;;;;;;;;5029745;28;20507;-81
2023/12/04 14:20:41;;;;;;;;;;;;;;;;;;5035167;28;19917;-81
2023/12/04 14:23:08;;;;;;;;;;;;;;;;;;5027070;28;19956;-82
2023/12/04 14:25:34;;;;;;;;;;;;;;;;;;5035915;28;19921;-83
2023/12/04 14:28:01;;;;;;;;;;;;;;;;;;5034492;28;19916;-82
2023/12/04 14:30:27;;;;;;;;;;;;;;;;;;5032744;28;20139;-81
2023/12/04 14:32:53;;;;;;;;;;;;;;;;;;5023439;28;19917;-82
2023/12/04 14:35:19;;;;;;;;;;;;;;;;;;5033103;28;20482;-82
2023/12/04 14:37:45;;;;;;;;;;;;;;;;;;5034888;28;20068;-82
2023/12/04 14:40:11;;;;;;;;;;;;;;;;;;5029889;28;19916;-81
2023/12/04 14:42:37;;;;;;;;;;;;;;;;;;5036907;28;20000;-81
2023/12/04 14:45:03;;;;;;;;;;;;;;;;;;5031421;28;21032;-83
2023/12/04 14:47:29;;;;;;;;;;;;;;;;;;5036614;28;19934;-81
2023/12/04 14:49:56;;;;;;;;;;;;;;;;;;5028117;28;19925;-82
2023/12/04 14:52:22;;;;;;;;;;;;;;;;;;5035356;28;19913;-82
2023/12/04 15:07:40;;;;;;;9.15;2.78;;;;;;;;;;5000957;28;20045;-68
2023/12/04 15:15:13;;;;;;;;;;;;;;;;;;4997534;28;20092;-67
2023/12/04 15:17:51;;;;;;;8.27;2.83;;;;;;;;;;5001294;28;19917;-67
2023/12/04 15:22:52;;;;;;;9.15;3.13;;;;;;;;;;4997308;28;20660;-67
2023/12/04 15:25:19;;;;;;;9.45;3.42;;;;;;;;;;5004115;28;20037;-66
2023/12/04 15:27:46;;;;;;;10.30;2.97;;;;;;;;;;5003468;28;20045;-69
2023/12/04 15:30:12;;;;;;;8.55;2.72;;;;;;;;;;4999618;28;20045;-67
2023/12/04 15:32:39;;;;;;;11.68;3.15;;;;;;;;;;5001555;28;20176;-66
2023/12/04 15:35:05;;;;;;;10.30;2.83;;;;;;;;;;4998924;28;20033;-66
2023/12/04 15:37:32;;;;;;;7.82;2.50;;;;;;;;;;5000202;28;20046;-67
2023/12/04 15:39:58;;;;;;;10.23;2.40;;;;;;;;;;5001792;28;20135;-67
2023/12/04 15:42:25;;;;;;;10.00;2.08;;;;;;;;;;5002730;28;20026;-68
2023/12/04 15:44:51;;;;;;;10.05;3.53;;;;;;;;;;5000805;28;20784;-68
2023/12/04 15:47:20;;;;;;;9.48;2.53;;;;;;;;;;5002003;28;20034;-68
2023/12/04 15:49:47;;;;;;;10.65;2.45;;;;;;;;;;5000477;28;20072;-66
2023/12/04 15:52:14;;;;;;;8.88;2.50;;;;;;;;;;4999844;28;20064;-66
2023/12/04 15:54:40;;;;;;;9.02;2.60;;;;;;;;;;5000301;28;20071;-67
2023/12/04 15:57:08;;;;;;;9.35;3.10;;;;;;;;;;5000733;28;20030;-67
2023/12/04 15:59:34;;;;;;;8.82;2.60;;;;;;;;;;5000909;28;20057;-66
2023/12/04 16:02:00;;;;;;;9.30;2.50;;;;;;;;;;4997667;28;20030;-67
2023/12/04 16:04:27;;;;;;;;;;;;;;;;;;4999274;28;20030;-66
2023/12/04 16:06:53;;;;;;;10.60;2.90;;;;;;;;;;4987033;28;19917;-68
2023/12/04 16:09:19;;;;;;;;;;;;;;;;;;4986308;28;20033;-66
2023/12/04 16:11:46;;;;;;;10.75;2.90;;;;;;;;;;4987171;28;19972;-68
2023/12/04 16:14:12;;;;;;;9.13;2.40;;;;;;;;;;4985345;28;20081;-67
2023/12/04 16:16:38;;;;;;;;;;;;;;;;;;4989719;28;20050;-66
2023/12/04 16:19:05;;;;;;;11.35;3.00;;;;;;;;;;4984730;28;20043;-67
2023/12/04 16:21:31;;;;;;;;;;;;;;;;;;4984962;28;20461;-68
2023/12/04 16:23:58;;;;;;;10.38;3.20;;;;;;;;;;4981892;28;19920;-69
2023/12/04 16:26:24;;;;;;;12.38;3.20;;;;;;;;;;4987791;28;20402;-66
2023/12/04 16:28:50;;;;;;;10.50;2.97;;;;;;;;;;4980307;28;20754;-67
2023/12/04 16:31:16;;;;;;;10.13;3.05;;;;;;;;;;4984839;28;20464;-67
2023/12/04 16:33:42;;;;;;;9.32;3.53;;;;;;;;;;4987464;28;20135;-67
2023/12/04 16:36:11;;;;;;;13.48;3.47;;;;;;;;;;4983548;28;20034;-66
2023/12/04 16:38:37;;;;;;;11.18;4.35;;;;;;;;;;4985034;28;20064;-68
2023/12/04 16:41:03;;;;;;;11.15;3.78;;;;;;;;;;4983976;28;20064;-67
2023/12/04 16:43:29;;;;;;;11.48;4.05;;;;;;;;;;4987338;28;20103;-66
2023/12/04 16:45:57;;;;;;;14.10;4.05;;;;;;;;;;4984999;28;20127;-66
2023/12/04 16:48:23;;;;;;;13.95;3.85;;;;;;;;;;4986807;28;20556;-66